Aérodrome :
LOGIN :

S'inscrire | Disclaimer

   EN    FR    IT 

 










Légende :    VFR   VFR Marginal   IFR   IFR Intensif   IFR Très Intensif
Visi : 
Plafond : 
>= 8 km
>= 3000ft
5 à 8 km
1000 à 3000 ft
1500m à 5 km
500 à 1000 ft
800 à 1500m
200 à 500 ft
< 800m
< 200 ft
Symboles :   Orages  Brouillard  Fortes neiges  Fortes précipitations  Vent > 20 kt
SIGMETs :   Divers  Orages  Givrage  Turbulence  Onde Orograph.  Cendres Volcan.






- Altitude de l'aérodrome : 124 ft
- Code IATA : NHT


EGWU - RAF Northolt

DERNIER METAR :
  • 031020Z 02010KT CAVOK 17/08 Q1008 NOSIG RMK BLU BLU

METARs EXPIRÉS :
  • 030950Z 02010KT 9999 -RA FEW060 BKN070 18/08 Q1008 NOSIG RMK BLU BLU
  • 030920Z 04007KT CAVOK 18/07 Q1008 NOSIG RMK BLU BLU
  • 030850Z 36006KT 9999 FEW042 BKN080 18/09 Q1008 NOSIG RMK BLU BLU
  • 030820Z 05006KT 9999 FEW042 BKN090 17/10 Q1008 NOSIG RMK BLU BLU
  • 030750Z AUTO 36005KT 9999 // OVC070/// 17/10 Q1008

TAF TAF EGWU
Valide du 03 à 09h jusqu'au 04 à 03h UTC


030737Z 0309/0403 02008KT 9999 BKN045
PROB40
TEMPO 0310/0323 7000 -RA
PROB30
TEMPO 0314/0322 BKN020
BECMG 0322/0401 BKN012
TEMPO 0323/0403 7000 -RA



MET'MAP, la Météo Aéronautique d'un coup d'oeil ! - Copyright ORBIFLY Décembre 2007 - Disclaimer

ORBIFLY MET'MAP TEAM :

Programmation & Développement : Alexandra Zaïnal
Sur une idée originale de : Baudouin d'Aumeries
Assistance à la programmation : Marc-Olivier Méhu
Soutien technique & logistique : Manuel Goepfert

Contact : metmap@orbifly.com




SOURCES & CREDITS :

   NOAA